createdAt,value
2022-09-04T00:02:08.352Z,99.90
2022-09-04T00:04:50.243Z,99.90
2022-09-04T00:07:27.760Z,99.90
2022-09-04T00:10:09.635Z,99.90
2022-09-04T00:12:46.069Z,99.90
2022-09-04T00:15:20.574Z,99.90
2022-09-04T00:17:55.941Z,99.90
2022-09-04T00:20:35.755Z,99.90
2022-09-04T00:23:10.085Z,99.90
2022-09-04T00:25:50.513Z,99.90
2022-09-04T00:28:35.262Z,99.90
2022-09-04T00:31:14.202Z,99.90
2022-09-04T00:33:50.700Z,99.90
2022-09-04T00:36:22.606Z,99.90
2022-09-04T00:38:55.852Z,99.90
2022-09-04T00:41:30.916Z,99.90
2022-09-04T00:44:35.629Z,99.90
2022-09-04T00:47:22.046Z,99.90
2022-09-04T00:50:23.048Z,99.90
2022-09-04T00:53:11.451Z,99.90
2022-09-04T00:55:54.126Z,99.90
2022-09-04T00:58:48.113Z,99.90
2022-09-04T01:01:23.185Z,99.90
2022-09-04T01:04:19.335Z,99.90
2022-09-04T01:06:58.973Z,99.90
2022-09-04T01:09:48.631Z,99.90
2022-09-04T01:12:30.160Z,99.90
2022-09-04T01:15:14.493Z,99.90
2022-09-04T01:17:56.315Z,99.90
2022-09-04T01:20:47.431Z,99.90
2022-09-04T01:23:31.793Z,99.90
2022-09-04T01:26:09.138Z,99.90
2022-09-04T01:28:51.693Z,99.90
2022-09-04T01:31:27.695Z,99.90
2022-09-04T01:34:16.257Z,99.90
2022-09-04T01:36:51.114Z,99.90
2022-09-04T01:39:23.178Z,99.90
2022-09-04T01:41:57.892Z,99.90
2022-09-04T01:44:27.270Z,99.90
2022-09-04T01:47:08.321Z,99.90
2022-09-04T01:49:39.140Z,99.90
2022-09-04T01:52:21.696Z,99.90
2022-09-04T01:54:57.048Z,99.90
2022-09-04T01:57:51.457Z,99.90
2022-09-04T02:00:23.196Z,99.90
2022-09-04T02:03:02.220Z,99.90
2022-09-04T02:05:35.495Z,99.90
2022-09-04T02:08:23.102Z,99.90
2022-09-04T02:10:57.675Z,99.90
2022-09-04T02:13:43.680Z,99.90
2022-09-04T02:16:16.718Z,99.90
2022-09-04T02:18:55.961Z,99.90
2022-09-04T02:21:31.806Z,99.90
2022-09-04T02:24:14.173Z,99.90
2022-09-04T02:26:51.269Z,99.90
2022-09-04T02:29:27.270Z,99.90
2022-09-04T02:32:02.686Z,99.90
2022-09-04T02:34:40.561Z,99.90
2022-09-04T02:37:18.122Z,99.90
2022-09-04T02:39:58.437Z,99.90
2022-09-04T02:42:33.924Z,99.90
2022-09-04T02:45:14.173Z,99.90
2022-09-04T02:47:50.066Z,99.90
2022-09-04T02:50:30.186Z,99.90
2022-09-04T02:53:08.364Z,99.90
2022-09-04T02:55:58.714Z,99.90
2022-09-04T02:58:39.660Z,99.90
2022-09-04T03:01:15.238Z,99.90
2022-09-04T03:03:48.139Z,99.90
2022-09-04T03:06:23.835Z,99.90
2022-09-04T03:08:57.110Z,99.90
2022-09-04T03:11:32.384Z,99.90
2022-09-04T03:14:06.817Z,99.90
2022-09-04T03:16:41.343Z,99.90
2022-09-04T03:19:18.992Z,99.90
2022-09-04T03:21:51.794Z,99.90
2022-09-04T03:24:28.729Z,99.90
2022-09-04T03:27:00.626Z,99.90
2022-09-04T03:29:35.900Z,99.90
2022-09-04T03:32:17.182Z,99.90
2022-09-04T03:34:52.578Z,99.90
2022-09-04T03:37:43.989Z,99.90
2022-09-04T03:40:25.993Z,99.90
2022-09-04T03:43:18.544Z,99.90
2022-09-04T03:45:55.710Z,99.90
2022-09-04T03:48:45.776Z,99.90
2022-09-04T03:51:25.677Z,99.90
2022-09-04T03:54:05.249Z,99.90
2022-09-04T03:56:48.263Z,99.90
2022-09-04T03:59:29.079Z,99.90
2022-09-04T04:02:06.533Z,99.90
2022-09-04T04:05:11.919Z,99.90
2022-09-04T04:07:48.071Z,99.90
2022-09-04T04:10:31.173Z,99.90
2022-09-04T04:13:15.605Z,99.90
2022-09-04T04:15:53.825Z,99.90
2022-09-04T04:18:53.114Z,99.90
2022-09-04T04:21:34.733Z,99.90
2022-09-04T04:24:39.155Z,99.90
2022-09-04T04:27:29.456Z,99.90
2022-09-04T04:30:06.111Z,99.90
2022-09-04T04:33:02.448Z,99.90
2022-09-04T04:35:39.334Z,99.90
2022-09-04T04:38:21.064Z,99.90
2022-09-04T04:41:02.237Z,99.90
2022-09-04T04:43:37.475Z,99.90
2022-09-04T04:46:12.419Z,99.90
2022-09-04T04:49:08.104Z,99.90
2022-09-04T04:51:59.345Z,99.90
2022-09-04T04:54:44.718Z,99.90
2022-09-04T04:57:26.891Z,99.90
2022-09-04T05:00:06.539Z,99.90
2022-09-04T05:02:41.627Z,99.90
2022-09-04T05:05:14.406Z,99.90
2022-09-04T05:07:52.219Z,99.90
2022-09-04T05:10:27.045Z,99.90
2022-09-04T05:13:04.318Z,99.90
2022-09-04T05:15:53.220Z,99.90
2022-09-04T05:18:32.690Z,99.90
2022-09-04T05:21:10.030Z,99.90
2022-09-04T05:23:46.707Z,99.90
2022-09-04T05:26:25.811Z,99.90
2022-09-04T05:29:02.317Z,99.90
2022-09-04T05:31:40.142Z,99.90
2022-09-04T05:34:16.383Z,99.90
2022-09-04T05:36:52.401Z,99.90
2022-09-04T05:39:29.654Z,99.90
2022-09-04T05:42:13.214Z,99.90
2022-09-04T05:44:57.659Z,99.90
2022-09-04T05:47:43.194Z,99.90
2022-09-04T05:50:41.074Z,99.90
2022-09-04T05:53:37.190Z,95.90
2022-09-04T05:56:25.743Z,92.00
2022-09-04T05:59:24.337Z,85.30
2022-09-04T06:02:07.730Z,75.40
2022-09-04T06:05:05.881Z,57.40
2022-09-04T06:07:41.813Z,53.60
2022-09-04T06:10:18.196Z,36.60
2022-09-04T06:13:21.661Z,31.80
2022-09-04T06:16:04.727Z,22.20
2022-09-04T06:18:52.101Z,5.40
2022-09-04T06:21:50.306Z,1.00
2022-09-04T06:24:33.158Z,1.00
2022-09-04T06:27:16.223Z,1.00
2022-09-04T06:29:59.294Z,1.00
2022-09-04T06:32:54.016Z,1.00
2022-09-04T06:35:40.720Z,1.00
2022-09-04T06:38:27.545Z,1.00
2022-09-04T06:41:08.512Z,1.00
2022-09-04T06:43:48.667Z,1.00
2022-09-04T06:46:23.704Z,1.00
2022-09-04T06:49:02.669Z,1.00
2022-09-04T06:51:45.625Z,1.00
2022-09-04T06:54:22.418Z,1.00
2022-09-04T06:57:06.849Z,1.00
2022-09-04T07:00:02.629Z,1.00
2022-09-04T07:02:46.946Z,1.00
2022-09-04T07:05:24.018Z,1.00
2022-09-04T07:08:04.962Z,1.00
2022-09-04T07:10:35.988Z,1.00
2022-09-04T07:13:36.724Z,1.00
2022-09-04T07:16:21.840Z,1.00
2022-09-04T07:19:08.705Z,1.00
2022-09-04T07:21:51.370Z,1.00
2022-09-04T07:24:47.493Z,1.00
2022-09-04T07:27:21.939Z,1.00
2022-09-04T07:29:55.954Z,1.00
2022-09-04T07:32:32.001Z,1.00
2022-09-04T07:35:06.312Z,1.00
2022-09-04T07:37:44.349Z,99.90
2022-09-04T07:40:17.676Z,99.90
2022-09-04T07:42:52.066Z,1.00
2022-09-04T07:45:32.362Z,1.00
2022-09-04T07:48:18.881Z,1.00
2022-09-04T07:51:04.992Z,1.00
2022-09-04T07:53:50.710Z,99.90
2022-09-04T07:56:27.489Z,1.00
2022-09-04T07:59:16.657Z,1.00
2022-09-04T08:02:03.422Z,1.00
2022-09-04T08:05:03.211Z,1.00
2022-09-04T08:08:12.397Z,99.90
2022-09-04T08:10:51.313Z,1.00
2022-09-04T08:13:44.351Z,1.00
2022-09-04T08:16:18.052Z,1.00
2022-09-04T08:19:15.682Z,99.90
2022-09-04T08:21:45.714Z,1.00
2022-09-04T08:24:45.654Z,99.90
2022-09-04T08:27:29.495Z,43.90
2022-09-04T08:30:05.036Z,1.00
2022-09-04T08:32:48.545Z,1.00
2022-09-04T08:35:23.694Z,1.00
2022-09-04T08:38:07.581Z,1.00
2022-09-04T08:40:57.770Z,1.00
2022-09-04T08:43:37.598Z,1.00
2022-09-04T08:46:44.542Z,1.00
2022-09-04T08:49:55.151Z,38.30
2022-09-04T08:52:54.773Z,99.90
2022-09-04T08:55:51.084Z,99.90
2022-09-04T08:58:47.862Z,1.00
2022-09-04T09:01:38.077Z,1.00
2022-09-04T09:04:49.433Z,1.00
2022-09-04T09:07:53.840Z,78.80
2022-09-04T09:10:52.123Z,1.00
2022-09-04T09:14:08.368Z,99.90
2022-09-04T09:16:45.748Z,1.00
2022-09-04T09:19:42.640Z,1.00
2022-09-04T09:22:16.330Z,1.00
2022-09-04T09:25:13.633Z,1.00
2022-09-04T09:28:20.982Z,1.00
2022-09-04T09:31:10.433Z,99.90
2022-09-04T09:34:11.518Z,99.90
2022-09-04T09:37:13.789Z,31.50
2022-09-04T09:40:25.929Z,1.00
2022-09-04T09:43:30.228Z,1.00
2022-09-04T09:46:17.799Z,99.90
2022-09-04T09:49:16.770Z,99.90
2022-09-04T09:52:19.920Z,42.40
2022-09-04T09:55:25.588Z,1.00
2022-09-04T09:58:29.140Z,1.00
2022-09-04T10:01:14.833Z,1.00
2022-09-04T10:04:21.511Z,1.00
2022-09-04T10:07:24.492Z,1.00
2022-09-04T10:10:28.815Z,1.00
2022-09-04T10:13:41.964Z,1.00
2022-09-04T10:16:42.787Z,1.00
2022-09-04T10:19:43.466Z,1.00
2022-09-04T10:22:59.811Z,1.00
2022-09-04T10:25:49.235Z,1.00
2022-09-04T10:28:57.168Z,99.90
2022-09-04T10:31:47.094Z,99.90
2022-09-04T10:34:40.118Z,99.90
2022-09-04T10:37:27.130Z,99.90
2022-09-04T10:40:24.473Z,99.90
2022-09-04T10:43:09.688Z,99.90
2022-09-04T10:45:39.916Z,99.90
2022-09-04T10:48:41.701Z,99.90
2022-09-04T10:51:44.153Z,99.90
2022-09-04T10:54:36.476Z,99.90
2022-09-04T10:57:18.556Z,99.90
2022-09-04T11:00:05.717Z,99.90
2022-09-04T11:03:07.920Z,99.90
2022-09-04T11:06:12.841Z,99.90
2022-09-04T11:09:06.650Z,99.90
2022-09-04T11:11:59.099Z,99.90
2022-09-04T11:14:53.086Z,99.90
2022-09-04T11:17:48.346Z,99.90
2022-09-04T11:20:50.335Z,99.90
2022-09-04T11:23:55.965Z,99.90
2022-09-04T11:27:08.293Z,99.90
2022-09-04T11:30:02.363Z,96.80
2022-09-04T11:32:52.285Z,90.20
2022-09-04T11:35:59.447Z,79.10
2022-09-04T11:38:54.832Z,70.30
2022-09-04T11:41:43.973Z,64.90
2022-09-04T11:44:35.852Z,56.10
2022-09-04T11:47:26.020Z,53.40
2022-09-04T11:50:05.843Z,54.50
2022-09-04T11:53:08.108Z,53.80
2022-09-04T11:56:12.730Z,53.70
2022-09-04T11:59:28.818Z,75.40
2022-09-04T12:02:41.629Z,54.40
2022-09-04T12:05:39.529Z,52.20
2022-09-04T12:08:28.022Z,52.40
2022-09-04T12:11:14.139Z,54.90
2022-09-04T12:14:09.461Z,55.70
2022-09-04T12:17:08.472Z,52.60
2022-09-04T12:20:26.744Z,53.00
2022-09-04T12:23:18.356Z,49.20
2022-09-04T12:26:08.500Z,48.10
2022-09-04T12:29:07.822Z,49.20
2022-09-04T12:31:52.941Z,49.90
2022-09-04T12:35:02.080Z,46.70
2022-09-04T12:38:09.943Z,44.30
2022-09-04T12:40:46.562Z,40.50
2022-09-04T12:43:31.995Z,36.50
2022-09-04T12:46:14.327Z,31.80
2022-09-04T12:48:54.609Z,30.70
2022-09-04T12:51:26.574Z,48.30
2022-09-04T12:54:19.088Z,26.50
2022-09-04T12:56:53.184Z,26.50
2022-09-04T12:59:50.014Z,26.20
2022-09-04T13:02:27.808Z,24.00
2022-09-04T13:05:03.865Z,20.90
2022-09-04T13:07:44.999Z,18.40
2022-09-04T13:10:24.135Z,16.40
2022-09-04T13:13:01.524Z,15.80
2022-09-04T13:15:36.517Z,14.60
2022-09-04T13:18:21.709Z,13.70
2022-09-04T13:21:01.193Z,12.60
2022-09-04T13:23:46.920Z,11.80
2022-09-04T13:26:29.607Z,12.50
2022-09-04T13:29:08.434Z,13.50
2022-09-04T13:32:04.403Z,13.60
2022-09-04T13:34:45.994Z,14.60
2022-09-04T13:37:23.816Z,15.70
2022-09-04T13:40:26.441Z,14.70
2022-09-04T13:43:22.449Z,14.30
2022-09-04T13:45:54.834Z,14.40
2022-09-04T13:48:37.336Z,15.10
2022-09-04T13:51:13.540Z,15.90
2022-09-04T13:53:54.690Z,17.10
2022-09-04T13:56:32.237Z,19.10
2022-09-04T13:59:08.527Z,18.50
2022-09-04T14:01:46.100Z,18.60
2022-09-04T14:04:19.388Z,18.70
2022-09-04T14:06:49.228Z,19.80
2022-09-04T14:09:18.318Z,19.50
2022-09-04T14:12:18.517Z,19.40
2022-09-04T14:15:21.311Z,20.00
2022-09-04T14:18:01.483Z,19.90
2022-09-04T14:20:36.553Z,19.20
2022-09-04T14:23:14.401Z,18.50
2022-09-04T14:25:51.236Z,18.10
2022-09-04T14:28:29.418Z,31.50
2022-09-04T14:31:10.367Z,15.20
2022-09-04T14:33:49.720Z,15.40
2022-09-04T14:36:29.763Z,15.20
2022-09-04T14:39:18.884Z,14.80
2022-09-04T14:42:12.181Z,14.60
2022-09-04T14:45:01.649Z,14.90
2022-09-04T14:47:42.214Z,14.70
2022-09-04T14:50:13.425Z,14.40
2022-09-04T14:52:45.646Z,14.90
2022-09-04T14:55:19.141Z,15.70
2022-09-04T14:57:51.293Z,15.70
2022-09-04T15:00:22.236Z,13.70
2022-09-04T15:02:58.068Z,14.10
2022-09-04T15:05:31.861Z,14.50
2022-09-04T15:08:02.452Z,14.60
2022-09-04T15:10:49.878Z,14.20
2022-09-04T15:13:59.947Z,13.90
2022-09-04T15:16:46.658Z,10.90
2022-09-04T15:19:28.525Z,11.80
2022-09-04T15:22:03.195Z,11.80
2022-09-04T15:24:37.921Z,12.60
2022-09-04T15:27:16.296Z,10.80
2022-09-04T15:30:00.241Z,10.90
2022-09-04T15:32:33.545Z,10.90
2022-09-04T15:35:12.495Z,10.30
2022-09-04T15:37:42.291Z,10.10
2022-09-04T15:40:14.028Z,10.20
2022-09-04T15:42:46.195Z,11.70
2022-09-04T15:45:23.929Z,11.10
2022-09-04T15:48:34.125Z,11.80
2022-09-04T15:51:19.928Z,26.30
2022-09-04T15:53:55.128Z,12.70
2022-09-04T15:56:34.821Z,14.20
2022-09-04T15:59:12.155Z,13.60
2022-09-04T16:01:49.685Z,14.00
2022-09-04T16:04:26.424Z,15.00
2022-09-04T16:06:59.969Z,16.60
2022-09-04T16:09:34.073Z,15.90
2022-09-04T16:12:10.622Z,16.40
2022-09-04T16:14:45.100Z,17.90
2022-09-04T16:17:20.146Z,17.40
2022-09-04T16:19:56.561Z,33.80
2022-09-04T16:22:36.343Z,17.90
2022-09-04T16:25:11.817Z,18.00
2022-09-04T16:27:48.233Z,18.90
2022-09-04T16:30:31.229Z,18.80
2022-09-04T16:33:00.310Z,19.70
2022-09-04T16:35:31.955Z,19.40
2022-09-04T16:38:09.269Z,19.30
2022-09-04T16:40:46.627Z,19.50
2022-09-04T16:43:24.093Z,19.60
2022-09-04T16:46:01.679Z,19.80
2022-09-04T16:48:43.250Z,20.30
2022-09-04T16:51:39.820Z,20.20
2022-09-04T16:54:18.083Z,21.60
2022-09-04T16:56:50.817Z,23.00
2022-09-04T16:59:26.322Z,23.30
2022-09-04T17:02:00.941Z,25.10
2022-09-04T17:04:39.761Z,25.40
2022-09-04T17:07:19.405Z,25.20
2022-09-04T17:10:02.746Z,26.50
2022-09-04T17:12:47.190Z,26.90
2022-09-04T17:15:27.929Z,29.00
2022-09-04T17:17:57.145Z,29.40
2022-09-04T17:20:51.613Z,30.50
2022-09-04T17:28:59.674Z,31.70
2022-09-04T17:29:07.543Z,33.70
2022-09-04T17:29:36.068Z,38.00
2022-09-04T17:32:51.509Z,40.30
2022-09-04T17:40:34.001Z,42.90
2022-09-04T17:40:36.993Z,46.70
2022-09-04T17:41:37.915Z,53.00
2022-09-04T17:44:05.388Z,61.30
2022-09-04T17:46:36.734Z,68.60
2022-09-04T17:49:20.077Z,78.50
2022-09-04T17:51:57.629Z,91.80
2022-09-04T17:54:30.177Z,99.90
2022-09-04T17:57:02.302Z,99.90
2022-09-04T17:59:40.512Z,99.90
2022-09-04T18:02:17.766Z,99.90
2022-09-04T18:04:53.758Z,99.90
2022-09-04T18:08:07.409Z,99.90
2022-09-04T18:10:25.204Z,1.00
2022-09-04T18:13:04.662Z,1.00
2022-09-04T18:15:39.411Z,1.00
2022-09-04T18:18:13.729Z,1.00
2022-09-04T18:20:50.937Z,55.90
2022-09-04T18:23:48.225Z,62.60
2022-09-04T18:26:33.979Z,99.90
2022-09-04T18:30:33.999Z,99.90
2022-09-04T18:37:06.204Z,1.00
2022-09-04T18:37:22.867Z,1.00
2022-09-04T18:38:15.596Z,1.00
2022-09-04T18:43:16.807Z,45.90
2022-09-04T18:50:30.768Z,99.90
2022-09-04T18:50:31.683Z,99.90
2022-09-04T18:50:39.644Z,99.90
2022-09-04T18:52:19.084Z,99.90
2022-09-04T18:54:50.782Z,99.90
2022-09-04T18:57:28.124Z,1.00
2022-09-04T19:00:08.145Z,1.00
2022-09-04T19:02:52.918Z,1.00
2022-09-04T19:05:44.336Z,99.90
2022-09-04T19:08:18.526Z,99.90
2022-09-04T19:10:55.087Z,1.00
2022-09-04T19:13:28.227Z,1.00
2022-09-04T19:16:02.750Z,1.00
2022-09-04T19:18:43.782Z,99.90
2022-09-04T19:21:21.977Z,1.00
2022-09-04T19:23:58.672Z,45.20
2022-09-04T19:26:36.483Z,99.90
2022-09-04T19:29:12.553Z,1.00
2022-09-04T19:31:44.542Z,99.90
2022-09-04T19:34:19.077Z,1.00
2022-09-04T19:36:55.625Z,1.00
2022-09-04T19:45:53.567Z,1.00
2022-09-04T19:46:12.321Z,1.00
2022-09-04T19:46:12.953Z,1.00
2022-09-04T19:48:24.364Z,1.00
2022-09-04T19:53:19.443Z,99.90
2022-09-04T19:53:57.903Z,99.90
2022-09-04T19:56:32.575Z,99.90
2022-09-04T19:59:25.994Z,99.90
2022-09-04T20:01:59.554Z,1.00
2022-09-04T20:04:37.234Z,71.20
2022-09-04T20:07:14.109Z,99.90
2022-09-04T20:09:48.963Z,1.00
2022-09-04T20:12:21.777Z,1.00
2022-09-04T20:14:56.098Z,1.00
2022-09-04T20:17:42.057Z,99.90
2022-09-04T20:20:19.084Z,99.90
2022-09-04T20:22:53.282Z,1.00
2022-09-04T20:25:42.713Z,99.90
2022-09-04T20:28:29.150Z,1.00
2022-09-04T20:31:35.415Z,1.00
2022-09-04T20:34:13.140Z,1.00
2022-09-04T20:36:49.122Z,99.90
2022-09-04T20:39:23.471Z,99.90
2022-09-04T20:42:01.467Z,1.00
2022-09-04T20:44:47.645Z,1.00
2022-09-04T20:52:42.368Z,1.00
2022-09-04T20:52:53.854Z,4.00
2022-09-04T20:53:28.354Z,99.90
2022-09-04T20:56:08.077Z,99.90
2022-09-04T21:03:09.465Z,99.90
2022-09-04T21:03:17.388Z,1.00
2022-09-04T21:05:00.780Z,1.00
2022-09-04T21:07:35.986Z,1.00
2022-09-04T21:10:11.739Z,1.00
2022-09-04T21:12:46.103Z,1.00
2022-09-04T21:15:31.719Z,47.70
2022-09-04T21:18:20.988Z,99.90
2022-09-04T21:21:07.728Z,99.90
2022-09-04T21:24:18.813Z,99.90
2022-09-04T21:27:13.172Z,99.90
2022-09-04T21:29:59.363Z,99.90
2022-09-04T21:33:03.697Z,99.90
2022-09-04T21:35:53.297Z,99.90
2022-09-04T21:38:57.020Z,99.90
2022-09-04T21:41:52.793Z,99.90
2022-09-04T21:44:56.877Z,99.90
2022-09-04T21:47:48.459Z,1.00
2022-09-04T21:50:42.552Z,1.00
2022-09-04T21:53:43.401Z,1.00
2022-09-04T22:02:12.394Z,1.00
2022-09-04T22:02:45.895Z,1.00
2022-09-04T22:02:54.331Z,1.00
2022-09-04T22:05:35.046Z,1.00
2022-09-04T22:13:27.024Z,1.00
2022-09-04T22:13:41.542Z,1.00
2022-09-04T22:14:26.553Z,1.00
2022-09-04T22:17:24.467Z,1.00
2022-09-04T22:20:14.933Z,1.00
2022-09-04T22:23:12.626Z,1.00
2022-09-04T22:25:48.804Z,1.00
2022-09-04T22:28:56.792Z,1.00
2022-09-04T22:31:55.355Z,1.00
2022-09-04T22:34:50.013Z,1.00
2022-09-04T22:37:53.420Z,1.00
2022-09-04T22:40:56.229Z,1.00
2022-09-04T22:43:27.230Z,1.00
2022-09-04T22:46:30.905Z,1.00
2022-09-04T22:49:36.340Z,1.00
2022-09-04T22:52:37.246Z,1.00
2022-09-04T22:55:39.088Z,1.00
2022-09-04T22:58:44.650Z,1.00
2022-09-04T23:01:52.712Z,1.00
2022-09-04T23:04:48.494Z,1.00
2022-09-04T23:12:13.561Z,1.00
2022-09-04T23:13:53.251Z,1.00
2022-09-04T23:14:06.439Z,1.00
2022-09-04T23:16:52.983Z,1.00
2022-09-04T23:25:56.828Z,1.00
2022-09-04T23:26:42.857Z,1.00
2022-09-04T23:26:49.221Z,1.00
2022-09-04T23:29:41.027Z,1.00
2022-09-04T23:32:36.091Z,1.00
2022-09-04T23:35:15.739Z,1.00
2022-09-04T23:38:07.081Z,1.00
2022-09-04T23:40:43.972Z,1.00
2022-09-04T23:43:43.301Z,1.00
2022-09-04T23:46:33.439Z,1.00
2022-09-04T23:49:32.366Z,1.00
2022-09-04T23:52:09.249Z,1.00
2022-09-04T23:54:56.789Z,1.00
2022-09-04T23:57:29.831Z,1.00
